createdAt,value
2018-05-02T00:00:26.351Z,63.70
2018-05-02T00:02:57.914Z,63.71
2018-05-02T00:05:25.615Z,63.87
2018-05-02T00:07:53.181Z,63.66
2018-05-02T00:10:20.760Z,63.13
2018-05-02T00:12:48.342Z,62.52
2018-05-02T00:15:16.236Z,62.64
2018-05-02T00:17:43.817Z,63.25
2018-05-02T00:20:11.344Z,63.18
2018-05-02T00:22:38.855Z,62.48
2018-05-02T00:25:06.584Z,62.36
2018-05-02T00:27:34.137Z,61.87
2018-05-02T00:30:01.728Z,61.89
2018-05-02T00:35:03.141Z,62.12
2018-05-02T00:37:30.682Z,62.49
2018-05-02T00:39:58.261Z,62.49
2018-05-02T00:42:25.804Z,62.29
2018-05-02T00:44:53.358Z,62.48
2018-05-02T00:47:20.932Z,61.96
2018-05-02T00:49:48.462Z,62.32
2018-05-02T00:52:16.054Z,61.97
2018-05-02T00:54:43.607Z,62.09
2018-05-02T00:57:11.182Z,62.30
2018-05-02T00:59:38.750Z,61.98
2018-05-02T01:02:06.400Z,61.57
2018-05-02T01:04:33.942Z,61.29
2018-05-02T01:07:01.516Z,60.94
2018-05-02T01:09:29.080Z,60.49
2018-05-02T01:14:46.875Z,60.44
2018-05-02T01:17:14.458Z,60.89
2018-05-02T01:19:41.984Z,60.82
2018-05-02T01:22:09.556Z,61.04
2018-05-02T01:24:37.069Z,61.04
2018-05-02T01:27:04.683Z,61.53
2018-05-02T01:29:32.440Z,61.33
2018-05-02T01:31:59.996Z,61.05
2018-05-02T01:34:27.551Z,61.35
2018-05-02T01:36:55.932Z,61.18
2018-05-02T01:39:23.684Z,60.86
2018-05-02T01:41:51.306Z,61.00
2018-05-02T01:44:18.898Z,61.04
2018-05-02T01:46:46.493Z,60.83
2018-05-02T01:49:23.800Z,60.79
2018-05-02T01:51:51.330Z,60.66
2018-05-02T01:54:18.889Z,60.78
2018-05-02T01:56:46.429Z,60.92
2018-05-02T01:59:13.965Z,60.87
2018-05-02T02:01:41.480Z,61.23
2018-05-02T02:04:09.016Z,61.61
2018-05-02T02:06:36.548Z,61.34
2018-05-02T02:09:04.080Z,61.50
2018-05-02T02:11:31.921Z,61.67
2018-05-02T02:13:59.512Z,61.85
2018-05-02T02:16:27.031Z,61.94
2018-05-02T02:18:54.576Z,61.92
2018-05-02T02:21:22.238Z,62.11
2018-05-02T02:23:49.874Z,61.52
2018-05-02T02:26:17.431Z,61.60
2018-05-02T02:28:44.970Z,61.54
2018-05-02T02:31:12.609Z,61.80
2018-05-02T02:33:40.298Z,62.35
2018-05-02T02:36:07.788Z,62.19
2018-05-02T02:38:35.309Z,62.01
2018-05-02T02:41:02.792Z,61.96
2018-05-02T02:43:30.744Z,61.86
2018-05-02T02:45:58.257Z,62.01
2018-05-02T02:48:26.149Z,62.17
2018-05-02T02:50:54.045Z,62.38
2018-05-02T02:53:21.936Z,62.46
2018-05-02T02:55:49.470Z,62.26
2018-05-02T02:58:16.961Z,62.19
2018-05-02T03:00:44.471Z,62.21
2018-05-02T03:03:12.266Z,62.54
2018-05-02T03:05:39.797Z,62.64
2018-05-02T03:08:07.360Z,62.68
2018-05-02T03:10:34.864Z,62.90
2018-05-02T03:13:02.377Z,63.63
2018-05-02T03:15:30.205Z,63.61
2018-05-02T03:17:57.688Z,63.45
2018-05-02T03:20:25.211Z,63.32
2018-05-02T03:22:52.752Z,63.56
2018-05-02T03:25:20.288Z,63.27
2018-05-02T03:27:47.830Z,63.39
2018-05-02T03:30:15.392Z,63.49
2018-05-02T03:32:42.929Z,63.19
2018-05-02T03:35:10.673Z,63.33
2018-05-02T03:37:38.229Z,63.45
2018-05-02T03:40:05.745Z,63.51
2018-05-02T03:42:33.323Z,63.86
2018-05-02T03:45:01.673Z,64.19
2018-05-02T03:47:29.180Z,64.26
2018-05-02T03:49:56.740Z,64.52
2018-05-02T03:52:24.249Z,64.82
2018-05-02T03:54:51.806Z,64.59
2018-05-02T03:57:26.746Z,64.22
2018-05-02T04:00:05.840Z,64.60
2018-05-02T04:02:45.794Z,65.04
2018-05-02T04:05:29.013Z,64.94
2018-05-02T04:08:05.132Z,64.52
2018-05-02T04:10:38.145Z,64.68
2018-05-02T04:13:05.775Z,64.76
2018-05-02T04:15:33.323Z,65.04
2018-05-02T04:18:00.888Z,64.88
2018-05-02T04:20:28.435Z,64.99
2018-05-02T04:23:02.983Z,64.39
2018-05-02T04:25:38.946Z,64.20
2018-05-02T04:28:12.878Z,64.38
2018-05-02T04:30:47.032Z,64.30
2018-05-02T04:33:20.339Z,64.28
2018-05-02T04:35:53.192Z,64.07
2018-05-02T04:38:24.697Z,63.79
2018-05-02T04:40:57.335Z,63.67
2018-05-02T04:43:31.204Z,63.48
2018-05-02T04:46:03.922Z,63.33
2018-05-02T04:48:37.207Z,63.36
2018-05-02T04:51:10.337Z,62.90
2018-05-02T04:53:44.246Z,62.92
2018-05-02T04:56:17.307Z,62.99
2018-05-02T04:58:50.599Z,62.95
2018-05-02T05:01:23.434Z,62.65
2018-05-02T05:03:56.130Z,62.35
2018-05-02T05:06:28.852Z,62.28
2018-05-02T05:09:04.317Z,62.69
2018-05-02T05:11:43.314Z,62.82
2018-05-02T05:14:16.796Z,62.43
2018-05-02T05:16:49.852Z,62.34
2018-05-02T05:19:23.533Z,61.99
2018-05-02T05:21:56.112Z,61.89
2018-05-02T05:24:31.431Z,61.81
2018-05-02T05:27:04.272Z,61.69
2018-05-02T05:29:37.262Z,61.07
2018-05-02T05:32:11.255Z,60.56
2018-05-02T05:34:46.409Z,60.15
2018-05-02T05:37:18.835Z,59.76
2018-05-02T05:39:53.654Z,59.56
2018-05-02T05:42:25.885Z,59.24
2018-05-02T05:44:59.437Z,58.84
2018-05-02T05:47:27.104Z,58.74
2018-05-02T05:49:54.658Z,58.17
2018-05-02T05:52:22.192Z,57.91
2018-05-02T05:54:49.733Z,57.44
2018-05-02T05:57:17.300Z,57.30
2018-05-02T05:59:44.827Z,56.73
2018-05-02T06:02:12.580Z,55.82
2018-05-02T06:04:40.116Z,56.33
2018-05-02T06:07:07.651Z,56.39
2018-05-02T06:09:35.221Z,56.29
2018-05-02T06:12:02.760Z,56.14
2018-05-02T06:14:30.297Z,56.10
2018-05-02T06:16:57.822Z,55.57
2018-05-02T06:19:25.525Z,55.77
2018-05-02T06:21:53.070Z,55.78
2018-05-02T06:24:20.791Z,55.77
2018-05-02T06:26:48.295Z,55.24
2018-05-02T06:29:15.804Z,55.47
2018-05-02T06:31:43.351Z,54.87
2018-05-02T06:34:10.902Z,54.58
2018-05-02T06:36:38.405Z,54.60
2018-05-02T06:39:05.945Z,54.62
2018-05-02T06:41:33.988Z,54.68
2018-05-02T06:44:01.536Z,54.40
2018-05-02T06:46:29.096Z,53.74
2018-05-02T06:48:56.628Z,52.73
2018-05-02T06:51:24.183Z,52.79
2018-05-02T06:53:51.746Z,52.88
2018-05-02T06:56:19.286Z,52.45
2018-05-02T06:58:46.785Z,52.73
2018-05-02T07:01:14.269Z,52.67
2018-05-02T07:03:41.743Z,52.30
2018-05-02T07:06:09.285Z,52.09
2018-05-02T07:08:36.821Z,52.14
2018-05-02T07:11:04.351Z,51.85
2018-05-02T07:13:31.916Z,51.63
2018-05-02T07:15:59.469Z,51.99
2018-05-02T07:18:27.060Z,51.83
2018-05-02T07:20:54.687Z,51.32
2018-05-02T07:23:22.530Z,51.95
2018-05-02T07:25:50.111Z,52.54
2018-05-02T07:28:17.655Z,52.57
2018-05-02T07:30:45.229Z,52.44
2018-05-02T07:33:13.282Z,52.38
2018-05-02T07:35:41.238Z,52.12
2018-05-02T07:38:08.811Z,52.30
2018-05-02T07:40:36.435Z,52.84
2018-05-02T07:43:04.015Z,52.68
2018-05-02T07:45:31.595Z,53.07
2018-05-02T07:47:59.148Z,52.28
2018-05-02T07:50:26.762Z,51.47
2018-05-02T07:52:54.328Z,51.83
2018-05-02T07:55:21.911Z,51.85
2018-05-02T07:57:49.551Z,51.20
2018-05-02T08:00:17.104Z,50.85
2018-05-02T08:02:44.700Z,50.56
2018-05-02T08:05:12.466Z,49.73
2018-05-02T08:07:40.105Z,49.22
2018-05-02T08:10:07.689Z,49.72
2018-05-02T08:12:35.256Z,49.66
2018-05-02T08:15:02.814Z,49.42
2018-05-02T08:17:30.876Z,49.29
2018-05-02T08:19:58.511Z,48.77
2018-05-02T08:22:26.097Z,49.19
2018-05-02T08:24:53.733Z,49.37
2018-05-02T08:27:21.703Z,48.57
2018-05-02T08:29:49.292Z,47.82
2018-05-02T08:32:16.875Z,47.82
2018-05-02T08:34:44.456Z,47.92
2018-05-02T08:37:12.620Z,48.34
2018-05-02T08:39:40.208Z,47.26
2018-05-02T08:42:07.824Z,46.66
2018-05-02T08:44:35.470Z,46.54
2018-05-02T08:47:03.111Z,45.25
2018-05-02T08:49:30.753Z,45.04
2018-05-02T08:51:58.301Z,45.26
2018-05-02T08:54:26.166Z,45.32
2018-05-02T08:56:53.780Z,45.32
2018-05-02T08:59:21.345Z,45.28
2018-05-02T09:01:48.985Z,45.40
2018-05-02T09:04:16.557Z,44.64
2018-05-02T09:06:44.105Z,43.45
2018-05-02T09:09:12.202Z,43.63
2018-05-02T09:11:39.788Z,43.36
2018-05-02T09:14:07.382Z,42.16
2018-05-02T09:16:35.014Z,42.08
2018-05-02T09:19:02.672Z,42.61
2018-05-02T09:21:30.268Z,42.16
2018-05-02T09:26:31.632Z,42.75
2018-05-02T09:28:59.591Z,41.78
2018-05-02T09:31:27.204Z,42.63
2018-05-02T09:33:54.840Z,42.54
2018-05-02T09:36:22.419Z,41.99
2018-05-02T09:38:50.014Z,41.89
2018-05-02T09:41:17.626Z,41.39
2018-05-02T09:43:45.226Z,41.78
2018-05-02T09:46:12.900Z,41.60
2018-05-02T09:48:40.497Z,41.48
2018-05-02T09:51:08.448Z,41.37
2018-05-02T09:53:36.072Z,40.91
2018-05-02T09:56:03.725Z,40.08
2018-05-02T09:58:31.317Z,40.31
2018-05-02T10:00:59.127Z,39.98
2018-05-02T10:03:26.942Z,39.29
2018-05-02T10:06:05.339Z,39.37
2018-05-02T10:08:33.090Z,38.57
2018-05-02T10:11:00.749Z,38.28
2018-05-02T10:13:28.396Z,38.34
2018-05-02T10:15:55.963Z,38.61
2018-05-02T10:18:23.587Z,39.03
2018-05-02T10:20:51.326Z,39.12
2018-05-02T10:23:18.920Z,38.89
2018-05-02T10:25:46.649Z,39.21
2018-05-02T10:28:14.286Z,39.29
2018-05-02T10:30:42.301Z,39.85
2018-05-02T10:33:10.320Z,39.70
2018-05-02T10:35:38.303Z,40.10
2018-05-02T10:38:05.891Z,40.16
2018-05-02T10:40:33.785Z,40.30
2018-05-02T10:43:01.449Z,39.43
2018-05-02T10:45:29.077Z,40.52
2018-05-02T10:47:56.766Z,40.02
2018-05-02T10:50:24.368Z,39.51
2018-05-02T10:52:51.950Z,39.87
2018-05-02T10:55:19.523Z,39.14
2018-05-02T10:57:47.104Z,38.93
2018-05-02T11:00:14.685Z,39.88
2018-05-02T11:02:42.270Z,39.11
2018-05-02T11:05:10.061Z,39.41
2018-05-02T11:07:37.647Z,39.14
2018-05-02T11:10:05.227Z,39.24
2018-05-02T11:12:32.869Z,39.41
2018-05-02T11:15:00.446Z,40.10
2018-05-02T11:17:28.055Z,40.68
2018-05-02T11:19:55.622Z,40.41
2018-05-02T11:22:23.198Z,40.53
2018-05-02T11:24:50.777Z,40.44
2018-05-02T11:27:18.460Z,39.47
2018-05-02T11:29:46.104Z,39.80
2018-05-02T11:32:13.669Z,40.27
2018-05-02T11:34:41.327Z,40.78
2018-05-02T11:37:09.089Z,40.41
2018-05-02T11:42:10.501Z,40.11
2018-05-02T11:44:38.060Z,39.31
2018-05-02T11:47:05.740Z,39.35
2018-05-02T11:49:33.321Z,39.63
2018-05-02T11:52:00.961Z,40.79
2018-05-02T11:54:28.650Z,41.20
2018-05-02T11:56:56.217Z,41.35
2018-05-02T11:59:23.792Z,41.58
2018-05-02T12:01:51.304Z,41.49
2018-05-02T12:04:18.865Z,41.14
2018-05-02T12:06:46.432Z,41.50
2018-05-02T12:09:14.071Z,41.49
2018-05-02T12:11:41.609Z,40.96
2018-05-02T12:14:09.178Z,40.58
2018-05-02T12:16:36.745Z,40.73
2018-05-02T12:19:04.342Z,40.25
2018-05-02T12:21:31.899Z,40.33
2018-05-02T12:23:59.582Z,40.38
2018-05-02T12:26:27.317Z,40.11
2018-05-02T12:28:54.950Z,40.20
2018-05-02T12:31:22.544Z,40.41
2018-05-02T12:33:50.117Z,40.33
2018-05-02T12:36:17.729Z,40.68
2018-05-02T12:38:45.280Z,40.55
2018-05-02T12:41:13.336Z,40.41
2018-05-02T12:43:40.957Z,40.75
2018-05-02T12:46:08.480Z,40.94
2018-05-02T12:48:35.996Z,40.54
2018-05-02T12:51:03.493Z,40.67
2018-05-02T12:53:31.271Z,40.41
2018-05-02T12:55:58.938Z,40.35
2018-05-02T12:58:26.518Z,40.28
2018-05-02T13:00:54.097Z,39.89
2018-05-02T13:03:21.737Z,38.72
2018-05-02T13:05:49.229Z,38.48
2018-05-02T13:08:16.809Z,37.35
2018-05-02T13:10:44.616Z,38.14
2018-05-02T13:13:12.580Z,37.44
2018-05-02T13:15:40.170Z,36.91
2018-05-02T13:18:07.802Z,36.88
2018-05-02T13:20:35.445Z,37.29
2018-05-02T13:23:03.006Z,37.43
2018-05-02T13:25:30.609Z,37.77
2018-05-02T13:27:58.232Z,37.47
2018-05-02T13:30:25.801Z,38.03
2018-05-02T13:32:53.377Z,38.63
2018-05-02T13:35:20.966Z,38.77
2018-05-02T13:37:48.588Z,38.36
2018-05-02T13:40:16.107Z,38.67
2018-05-02T13:42:43.728Z,38.78
2018-05-02T13:45:11.796Z,38.64
2018-05-02T13:47:39.485Z,37.60
2018-05-02T13:50:07.121Z,37.57
2018-05-02T13:52:35.255Z,37.75
2018-05-02T13:55:02.861Z,37.51
2018-05-02T13:57:30.645Z,37.88
2018-05-02T14:00:00.553Z,38.15
2018-05-02T14:02:28.421Z,38.15
2018-05-02T14:04:56.033Z,37.83
2018-05-02T14:07:29.955Z,38.13
2018-05-02T14:09:59.575Z,38.32
2018-05-02T14:12:32.295Z,38.76
2018-05-02T14:15:02.366Z,38.24
2018-05-02T14:17:31.280Z,38.80
2018-05-02T14:19:58.860Z,38.86
2018-05-02T14:22:26.524Z,39.13
2018-05-02T14:24:54.099Z,39.30
2018-05-02T14:27:22.123Z,39.56
2018-05-02T14:29:50.611Z,39.77
2018-05-02T14:32:18.418Z,39.57
2018-05-02T14:34:46.026Z,39.72
2018-05-02T14:37:13.608Z,39.92
2018-05-02T14:39:41.316Z,40.03
2018-05-02T14:42:08.863Z,39.57
2018-05-02T14:44:36.616Z,39.59
2018-05-02T14:47:04.126Z,39.47
2018-05-02T14:49:31.901Z,40.00
2018-05-02T14:51:59.512Z,40.57
2018-05-02T14:54:27.142Z,40.57
2018-05-02T14:56:54.735Z,40.78
2018-05-02T14:59:22.375Z,41.41
2018-05-02T15:01:49.919Z,41.62
2018-05-02T15:04:17.485Z,41.74
2018-05-02T15:06:45.088Z,41.78
2018-05-02T15:09:12.689Z,41.92
2018-05-02T15:11:40.280Z,42.67
2018-05-02T15:14:07.881Z,42.71
2018-05-02T15:16:35.520Z,42.73
2018-05-02T15:19:03.165Z,43.06
2018-05-02T15:21:31.679Z,43.05
2018-05-02T15:23:59.230Z,43.18
2018-05-02T15:26:27.649Z,43.34
2018-05-02T15:28:55.141Z,43.80
2018-05-02T15:31:22.669Z,43.49
2018-05-02T15:33:50.187Z,43.23
2018-05-02T15:36:17.727Z,42.91
2018-05-02T15:38:45.303Z,43.29
2018-05-02T15:41:13.264Z,43.21
2018-05-02T15:43:40.938Z,43.31
2018-05-02T15:46:08.535Z,43.21
2018-05-02T15:48:36.158Z,42.89
2018-05-02T15:51:03.735Z,43.28
2018-05-02T15:53:31.332Z,43.23
2018-05-02T15:55:58.946Z,43.28
2018-05-02T15:58:26.593Z,43.64
2018-05-02T16:00:54.090Z,43.00
2018-05-02T16:03:21.643Z,43.38
2018-05-02T16:05:49.201Z,43.73
2018-05-02T16:08:16.782Z,43.83
2018-05-02T16:10:50.202Z,43.83
2018-05-02T16:16:01.807Z,43.94
2018-05-02T16:18:29.419Z,43.88
2018-05-02T16:20:58.023Z,44.13
2018-05-02T16:23:25.642Z,44.26
2018-05-02T16:25:53.227Z,44.51
2018-05-02T16:28:20.834Z,44.68
2018-05-02T16:30:48.431Z,44.91
2018-05-02T16:33:16.492Z,45.16
2018-05-02T16:35:44.085Z,45.26
2018-05-02T16:38:11.664Z,45.12
2018-05-02T16:40:39.440Z,45.13
2018-05-02T16:43:07.039Z,45.30
2018-05-02T16:45:34.603Z,45.71
2018-05-02T16:48:02.165Z,45.81
2018-05-02T16:50:29.716Z,46.15
2018-05-02T16:52:57.325Z,46.51
2018-05-02T16:55:24.975Z,46.76
2018-05-02T16:57:52.705Z,46.90
2018-05-02T17:00:20.286Z,47.06
2018-05-02T17:02:47.919Z,47.47
2018-05-02T17:05:16.197Z,47.37
2018-05-02T17:07:43.719Z,47.49
2018-05-02T17:10:11.327Z,47.35
2018-05-02T17:12:38.927Z,47.15
2018-05-02T17:15:06.544Z,47.29
2018-05-02T17:17:34.139Z,47.67
2018-05-02T17:20:01.704Z,47.51
2018-05-02T17:22:29.345Z,47.79
2018-05-02T17:24:56.987Z,47.91
2018-05-02T17:27:24.963Z,48.23
2018-05-02T17:29:52.531Z,48.36
2018-05-02T17:32:20.110Z,48.36
2018-05-02T17:34:47.667Z,48.45
2018-05-02T17:37:15.497Z,48.61
2018-05-02T17:39:43.144Z,48.59
2018-05-02T17:42:10.712Z,49.12
2018-05-02T17:44:38.290Z,49.24
2018-05-02T17:47:05.918Z,49.42
2018-05-02T17:49:33.668Z,49.70
2018-05-02T17:52:01.505Z,49.83
2018-05-02T17:54:29.092Z,49.88
2018-05-02T17:56:56.742Z,50.14
2018-05-02T17:59:24.346Z,50.41
2018-05-02T18:01:51.914Z,50.67
2018-05-02T18:04:30.896Z,51.01
2018-05-02T18:06:59.741Z,51.42
2018-05-02T18:09:27.455Z,51.76
2018-05-02T18:11:55.356Z,52.22
2018-05-02T18:14:22.955Z,52.67
2018-05-02T18:16:50.580Z,52.94
2018-05-02T18:19:18.130Z,52.98
2018-05-02T18:21:45.819Z,53.38
2018-05-02T18:24:13.409Z,53.99
2018-05-02T18:26:41.095Z,54.34
2018-05-02T18:29:08.771Z,54.87
2018-05-02T18:31:36.611Z,54.92
2018-05-02T18:34:04.225Z,55.33
2018-05-02T18:36:31.866Z,55.57
2018-05-02T18:38:59.425Z,55.78
2018-05-02T18:41:27.269Z,54.79
2018-05-02T18:43:54.984Z,54.13
2018-05-02T18:46:22.577Z,53.71
2018-05-02T18:48:50.150Z,54.03
2018-05-02T18:51:17.740Z,53.77
2018-05-02T18:53:45.433Z,53.75
2018-05-02T18:56:13.059Z,54.27
2018-05-02T18:58:40.663Z,54.22
2018-05-02T19:01:08.216Z,54.62
2018-05-02T19:03:36.007Z,54.81
2018-05-02T19:06:03.968Z,54.19
2018-05-02T19:08:31.585Z,54.31
2018-05-02T19:10:59.225Z,54.39
2018-05-02T19:13:26.802Z,54.34
2018-05-02T19:15:54.424Z,54.24
2018-05-02T19:18:27.553Z,54.05
2018-05-02T19:20:55.121Z,54.28
2018-05-02T19:23:22.737Z,53.91
2018-05-02T19:28:53.449Z,53.11
2018-05-02T19:31:26.400Z,52.59
2018-05-02T19:33:53.888Z,52.43
2018-05-02T19:36:21.423Z,51.99
2018-05-02T19:38:48.974Z,51.80
2018-05-02T19:41:22.802Z,51.48
2018-05-02T19:43:55.910Z,51.24
2018-05-02T19:46:23.419Z,50.05
2018-05-02T19:48:50.968Z,49.43
2018-05-02T19:51:23.908Z,49.50
2018-05-02T19:53:51.707Z,48.92
2018-05-02T19:56:19.372Z,49.26
2018-05-02T19:58:46.955Z,49.02
2018-05-02T20:01:20.184Z,49.22
2018-05-02T20:03:48.543Z,49.31
2018-05-02T20:06:16.139Z,49.37
2018-05-02T20:08:49.349Z,49.55
2018-05-02T20:11:22.541Z,49.59
2018-05-02T20:13:55.816Z,49.69
2018-05-02T20:16:23.419Z,49.89
2018-05-02T20:18:50.978Z,50.29
2018-05-02T20:21:18.656Z,50.69
2018-05-02T20:23:46.251Z,51.14
2018-05-02T20:26:13.808Z,51.55
2018-05-02T20:28:41.693Z,52.00
2018-05-02T20:31:09.332Z,52.60
2018-05-02T20:33:36.923Z,52.92
2018-05-02T20:36:04.508Z,54.05
2018-05-02T20:38:32.147Z,54.79
2018-05-02T20:40:59.773Z,55.13
2018-05-02T20:43:27.352Z,55.40
2018-05-02T20:45:54.933Z,54.93
2018-05-02T20:48:22.589Z,56.42
2018-05-02T20:50:50.149Z,57.29
2018-05-02T20:53:18.775Z,57.34
2018-05-02T20:55:46.570Z,57.61
2018-05-02T20:58:14.186Z,58.10
2018-05-02T21:00:42.010Z,58.62
2018-05-02T21:03:09.661Z,58.86
2018-05-02T21:05:37.225Z,59.26
2018-05-02T21:08:04.892Z,59.15
2018-05-02T21:10:32.817Z,59.04
2018-05-02T21:13:00.419Z,58.93
2018-05-02T21:15:28.152Z,59.05
2018-05-02T21:17:55.718Z,59.38
2018-05-02T21:20:23.366Z,59.35
2018-05-02T21:22:50.944Z,59.89
2018-05-02T21:25:18.520Z,60.08
2018-05-02T21:27:46.104Z,59.74
2018-05-02T21:30:13.706Z,59.80
2018-05-02T21:32:41.271Z,59.53
2018-05-02T21:35:09.382Z,59.27
2018-05-02T21:37:36.999Z,59.66
2018-05-02T21:40:04.595Z,59.56
2018-05-02T21:42:32.189Z,59.92
2018-05-02T21:44:59.764Z,60.01
2018-05-02T21:47:27.357Z,59.72
2018-05-02T21:49:55.837Z,59.06
2018-05-02T21:52:23.474Z,57.87
2018-05-02T21:54:50.985Z,57.46
2018-05-02T21:57:18.553Z,56.62
2018-05-02T21:59:46.201Z,56.49
2018-05-02T22:02:13.874Z,56.72
2018-05-02T22:07:26.553Z,59.34
2018-05-02T22:09:54.133Z,59.90
2018-05-02T22:12:21.846Z,60.98
2018-05-02T22:14:49.449Z,64.29
2018-05-02T22:17:17.435Z,65.75
2018-05-02T22:19:45.080Z,67.59
2018-05-02T22:22:12.672Z,69.29
2018-05-02T22:24:40.414Z,70.42
2018-05-02T22:27:08.574Z,70.67
2018-05-02T22:29:36.322Z,71.89
2018-05-02T22:32:04.028Z,72.34
2018-05-02T22:37:05.599Z,74.40
2018-05-02T22:39:33.326Z,74.74
2018-05-02T22:42:00.954Z,74.57
2018-05-02T22:44:28.567Z,75.32
2018-05-02T22:46:56.158Z,75.22
2018-05-02T22:49:24.064Z,75.02
2018-05-02T22:51:51.717Z,74.85
2018-05-02T22:54:19.371Z,74.97
2018-05-02T22:56:46.951Z,74.40
2018-05-02T22:59:14.523Z,74.68
2018-05-02T23:01:42.116Z,74.35
2018-05-02T23:04:09.684Z,74.73
2018-05-02T23:06:37.233Z,74.91
2018-05-02T23:09:04.877Z,74.56
2018-05-02T23:11:32.513Z,75.02
2018-05-02T23:14:00.143Z,75.97
2018-05-02T23:16:27.809Z,77.87
2018-05-02T23:18:55.375Z,78.12
2018-05-02T23:21:22.914Z,78.30
2018-05-02T23:23:50.416Z,78.01
2018-05-02T23:26:18.211Z,77.87
2018-05-02T23:28:45.824Z,77.95
2018-05-02T23:31:13.403Z,78.41
2018-05-02T23:33:40.996Z,78.49
2018-05-02T23:36:08.549Z,78.62
2018-05-02T23:38:36.080Z,78.35
2018-05-02T23:41:03.618Z,78.07
2018-05-02T23:43:31.201Z,78.83
2018-05-02T23:45:58.784Z,78.39
2018-05-02T23:48:26.355Z,78.30
2018-05-02T23:50:53.856Z,78.07
2018-05-02T23:53:21.374Z,78.21
2018-05-02T23:55:48.911Z,78.72
2018-05-02T23:58:16.403Z,78.43
